ADDS METAR Data INFO
IDs: Format: Raw Decoded Include TAF

Data at: 1927 UTC 19 Jul 2018

KIAG 191853Z 17007KT 150V220 10SM CLR 27/11 A3007 RMK AO2 SLP178 T02670111
KIAG 191753Z 29004KT 10SM FEW060 25/11 A3008 RMK AO2 SLP183 T02500111 10267 20183 58007
KIAG 191653Z 23006KT 10SM FEW060 26/10 A3009 RMK AO2 SLP187 T02560100
KIAG 191553Z 20006KT 10SM CLR 25/11 A3010 RMK AO2 SLP190 T02500106
KIAG 191453Z 21006KT 10SM CLR 24/10 A3010 RMK AO2 SLP190 T02390100 50002
KIAG 191353Z 23007KT 10SM CLR 22/13 A3010 RMK AO2 SLP192 T02220133
KIAG 191253Z 25004KT 10SM CLR 21/13 A3010 RMK AO2 SLP190 T02060133
KIAG 191153Z 23005KT 10SM CLR 18/13 A3010 RMK AO2 SLP189 T01830128 10183 20144 52010
KIAG 191053Z 22004KT 10SM CLR 16/13 A3009 RMK AO2 SLP186 T01610128
KIAG 190953Z AUTO 00000KT 10SM CLR 15/11 A3008 RMK AO2 SLP183 T01500111
KIAG 190853Z AUTO 00000KT 10SM CLR 15/10 A3007 RMK AO2 SLP180 T01500100 53003
KIAG 190753Z AUTO 14004KT 10SM CLR 16/10 A3005 RMK AO2 SLP173 T01560100
KIAG 190653Z AUTO 13004KT 10SM CLR 16/09 A3005 RMK AO2 SLP173 T01610094
KIAG 190553Z AUTO 15004KT 10SM SCT055 17/09 A3006 RMK AO2 SLP175 T01670094 10228 20150 50001
KIAG 190453Z AUTO 14004KT 10SM CLR 16/09 A3006 RMK AO2 SLP177 T01560094 402440150
KIAG 190353Z 14003KT 10SM FEW060 17/09 A3005 RMK AO2 SLP174 T01670094
KIAG 190253Z 00000KT 10SM CLR 18/10 A3005 RMK AO2 SLP174 T01830100 53007
KIAG 190153Z 12003KT 10SM CLR 18/09 A3004 RMK AO2 SLP171 T01830094
KIAG 190053Z 08005KT 10SM CLR 21/09 A3003 RMK AO2 SLP166 T02110089
KIAG 182353Z 07005KT 10SM CLR 23/09 A3003 RMK AO2 SLP166 T02280094 10244 20222 56003
KIAG 182253Z 36007KT 10SM CLR 24/09 A3004 RMK AO2 SLP169 T02390094
KIAG 182153Z 36008KT 330V040 10SM CLR 24/09 A3003 RMK AO2 SLP166 T02390094
KIAG 182053Z 35007KT 10SM CLR 24/09 A3004 RMK AO2 SLP170 T02390094 58009
KIAG 181953Z 32010G15KT 10SM CLR 24/09 A3006 RMK AO2 SLP176 T02390089
KIAG 181853Z 02007KT 10SM CLR 23/09 A3007 RMK AO2 SLP178 T02330089
KIAG 181753Z 33006G16KT 10SM SCT050 23/10 A3007 RMK AO2 SLP178 T02280100 10239 20194 58001
KIAG 181653Z 00000KT 10SM SCT047 23/11 A3007 RMK AO2 SLP178 T02280106
KIAG 181553Z 01006KT 10SM SCT044 23/11 A3008 RMK AO2 SLP181 T02280111
KIAG 181453Z 36010KT 10SM SCT041 22/11 A3007 RMK AO2 SLP180 T02220111 51005
KIAG 181353Z 01008KT 10SM FEW055 21/11 A3007 RMK AO2 SLP180 T02110111
KIAG 181253Z 05008KT 10SM SCT060 21/12 A3007 RMK AO2 SLP179 T02060117
KIAG 181153Z 05008KT 10SM FEW055 19/13 A3006 RMK AO2 SLP175 T01890128 10194 20167 51018
KIAG 181053Z 02005KT 10SM CLR 17/13 A3004 RMK AO2 SLP169 T01720133
KIAG 180953Z AUTO 02004KT 10SM SCT060 17/13 A3002 RMK AO2 SLP164 T01670133
KIAG 180853Z AUTO 01005KT 10SM FEW055 17/13 A3000 RMK AO2 SLP156 T01720133 53009
KIAG 180753Z AUTO 35005KT 10SM CLR 18/14 A2999 RMK AO2 SLP151 T01780139